Kezdőlap
METAR-TAF:

METAR-TAF

Repülőterek :

Whiteside County Airport (Jos. H. Bittorf Field)

Sterling-Rock Falls, Illinois, Amerikai Egyesült Államok

földrajzi szélesség: 41-45N, földrajzi hosszúság: 089-40W, magasság: 197 m

Jelenlegi meteorológiai megfigyelések

A jelentés 7 perccel ezelõtt készült, 12:56 UTC
Délkeleti szél 3 kt
Hőmérséklet 24°C
Páratartalom 100%
Légköri nyomás 1018 hPa
Látótávolság: 6.4 km
Kevés felhő 3400 lábon
Szakadozott felhőzet 4100 lábon
Borult 7000 lábon
esõ, Párásság

METAR: KSQI 281256Z 14003KT 4SM RA BR FEW034 BKN041 OVC070 24/24 A3005 RMK AO2 RAB39 SLP039 P0001 T02390239

Idő: 08:03 (13:03 UTC)


TAF: hiányzik

Meteorológiai megfigyelések és előrejelzések több, mint 4000 repülőtéren (METAR és TAF jelentéseket).

A térképen piros és sárga pontok jelzik az elérhető meteorológiai állomásokat.

Mozgassa az egeret a pont fölött, hogy megjelenjen az állomás neve.

Azután kattintson az időjárási megfigyelések és előrejelzések megtekintéséhez.

A térkép megváltoztatása: kattintson a fekete keresztel jelölt zöld gombra ráközelítéshez, a vonallal jelölt zöld gombra távolításhoz, vagy a zöld nyilakra a szomszédos térképek eléréséhez.


METAR-TAF: